sensor_id;sensor_type;location;lat;lon;timestamp;P1;durP1;ratioP1;P2;durP2;ratioP2
23474;SDS011;11910;52.086;21.066;2023-07-29T00:01:41;12.40;;;4.03;;
23474;SDS011;11910;52.086;21.066;2023-07-29T00:04:07;11.05;;;3.40;;
23474;SDS011;11910;52.086;21.066;2023-07-29T00:06:34;7.53;;;3.97;;
23474;SDS011;11910;52.086;21.066;2023-07-29T00:09:00;10.52;;;3.40;;
23474;SDS011;11910;52.086;21.066;2023-07-29T00:11:26;6.75;;;2.50;;
23474;SDS011;11910;52.086;21.066;2023-07-29T00:13:52;8.93;;;3.30;;
23474;SDS011;11910;52.086;21.066;2023-07-29T00:16:18;5.45;;;2.70;;
23474;SDS011;11910;52.086;21.066;2023-07-29T00:18:46;5.88;;;3.20;;
23474;SDS011;11910;52.086;21.066;2023-07-29T00:21:13;4.68;;;3.10;;
23474;SDS011;11910;52.086;21.066;2023-07-29T00:23:38;6.05;;;3.50;;
23474;SDS011;11910;52.086;21.066;2023-07-29T00:26:04;7.60;;;4.28;;
23474;SDS011;11910;52.086;21.066;2023-07-29T00:28:29;6.72;;;3.67;;
23474;SDS011;11910;52.086;21.066;2023-07-29T00:30:55;12.18;;;4.20;;
23474;SDS011;11910;52.086;21.066;2023-07-29T00:33:21;8.23;;;5.00;;
23474;SDS011;11910;52.086;21.066;2023-07-29T00:35:46;9.45;;;4.88;;
23474;SDS011;11910;52.086;21.066;2023-07-29T00:38:12;9.07;;;5.43;;
23474;SDS011;11910;52.086;21.066;2023-07-29T00:40:37;7.82;;;5.95;;
23474;SDS011;11910;52.086;21.066;2023-07-29T00:43:03;8.60;;;6.30;;
23474;SDS011;11910;52.086;21.066;2023-07-29T00:45:29;10.80;;;6.65;;
23474;SDS011;11910;52.086;21.066;2023-07-29T00:47:55;10.13;;;8.30;;
23474;SDS011;11910;52.086;21.066;2023-07-29T00:50:21;12.32;;;8.38;;
23474;SDS011;11910;52.086;21.066;2023-07-29T00:52:47;10.10;;;8.63;;
23474;SDS011;11910;52.086;21.066;2023-07-29T00:55:13;10.27;;;8.77;;
23474;SDS011;11910;52.086;21.066;2023-07-29T00:57:39;9.70;;;6.55;;
23474;SDS011;11910;52.086;21.066;2023-07-29T01:00:05;14.95;;;7.18;;
23474;SDS011;11910;52.086;21.066;2023-07-29T01:02:31;9.02;;;6.93;;
23474;SDS011;11910;52.086;21.066;2023-07-29T01:04:58;8.25;;;6.63;;
23474;SDS011;11910;52.086;21.066;2023-07-29T01:07:30;10.85;;;7.93;;
23474;SDS011;11910;52.086;21.066;2023-07-29T01:10:04;7.82;;;6.55;;
23474;SDS011;11910;52.086;21.066;2023-07-29T01:15:45;10.85;;;6.50;;
23474;SDS011;11910;52.086;21.066;2023-07-29T01:18:29;9.25;;;5.70;;
23474;SDS011;11910;52.086;21.066;2023-07-29T01:21:00;14.05;;;5.63;;
23474;SDS011;11910;52.086;21.066;2023-07-29T01:23:33;7.32;;;6.63;;
23474;SDS011;11910;52.086;21.066;2023-07-29T01:25:59;8.48;;;6.53;;
23474;SDS011;11910;52.086;21.066;2023-07-29T01:28:25;8.85;;;6.60;;
23474;SDS011;11910;52.086;21.066;2023-07-29T01:30:55;8.88;;;5.93;;
23474;SDS011;11910;52.086;21.066;2023-07-29T01:33:46;7.57;;;5.10;;
23474;SDS011;11910;52.086;21.066;2023-07-29T01:36:18;7.40;;;6.30;;
23474;SDS011;11910;52.086;21.066;2023-07-29T01:38:48;7.00;;;5.53;;
23474;SDS011;11910;52.086;21.066;2023-07-29T01:41:16;7.70;;;5.97;;
23474;SDS011;11910;52.086;21.066;2023-07-29T01:43:43;8.25;;;6.43;;
23474;SDS011;11910;52.086;21.066;2023-07-29T01:46:10;8.10;;;7.40;;
23474;SDS011;11910;52.086;21.066;2023-07-29T01:48:39;10.68;;;8.32;;
23474;SDS011;11910;52.086;21.066;2023-07-29T01:51:05;9.85;;;6.97;;
23474;SDS011;11910;52.086;21.066;2023-07-29T01:53:31;10.55;;;8.55;;
23474;SDS011;11910;52.086;21.066;2023-07-29T01:55:57;15.07;;;11.05;;
23474;SDS011;11910;52.086;21.066;2023-07-29T01:58:22;12.95;;;11.30;;
23474;SDS011;11910;52.086;21.066;2023-07-29T02:00:48;14.63;;;13.13;;
23474;SDS011;11910;52.086;21.066;2023-07-29T02:03:14;21.40;;;17.70;;
23474;SDS011;11910;52.086;21.066;2023-07-29T02:05:39;26.30;;;18.58;;
23474;SDS011;11910;52.086;21.066;2023-07-29T02:08:06;27.92;;;21.05;;
23474;SDS011;11910;52.086;21.066;2023-07-29T02:10:32;25.80;;;20.75;;
23474;SDS011;11910;52.086;21.066;2023-07-29T02:12:57;30.25;;;22.00;;
23474;SDS011;11910;52.086;21.066;2023-07-29T02:15:23;30.60;;;22.45;;
23474;SDS011;11910;52.086;21.066;2023-07-29T02:17:49;32.03;;;23.48;;
23474;SDS011;11910;52.086;21.066;2023-07-29T02:20:16;30.38;;;23.42;;
23474;SDS011;11910;52.086;21.066;2023-07-29T02:22:41;31.95;;;23.58;;
23474;SDS011;11910;52.086;21.066;2023-07-29T02:25:07;28.77;;;23.73;;
23474;SDS011;11910;52.086;21.066;2023-07-29T02:27:33;32.67;;;23.75;;
23474;SDS011;11910;52.086;21.066;2023-07-29T02:29:58;32.03;;;23.60;;
23474;SDS011;11910;52.086;21.066;2023-07-29T02:32:24;28.60;;;23.17;;
23474;SDS011;11910;52.086;21.066;2023-07-29T02:34:50;29.23;;;23.38;;
23474;SDS011;11910;52.086;21.066;2023-07-29T02:37:15;29.00;;;23.95;;
23474;SDS011;11910;52.086;21.066;2023-07-29T02:39:41;29.95;;;23.80;;
23474;SDS011;11910;52.086;21.066;2023-07-29T02:42:07;32.35;;;25.20;;
23474;SDS011;11910;52.086;21.066;2023-07-29T02:44:32;28.75;;;22.85;;
23474;SDS011;11910;52.086;21.066;2023-07-29T02:46:58;32.67;;;24.67;;
23474;SDS011;11910;52.086;21.066;2023-07-29T02:49:23;31.88;;;25.40;;
23474;SDS011;11910;52.086;21.066;2023-07-29T02:51:49;31.40;;;25.30;;
23474;SDS011;11910;52.086;21.066;2023-07-29T02:54:15;39.58;;;27.88;;
23474;SDS011;11910;52.086;21.066;2023-07-29T02:56:40;28.80;;;23.23;;
23474;SDS011;11910;52.086;21.066;2023-07-29T02:59:06;34.05;;;24.60;;
23474;SDS011;11910;52.086;21.066;2023-07-29T03:01:31;26.50;;;23.23;;
23474;SDS011;11910;52.086;21.066;2023-07-29T03:03:57;31.83;;;23.92;;
23474;SDS011;11910;52.086;21.066;2023-07-29T03:06:23;28.70;;;23.45;;
23474;SDS011;11910;52.086;21.066;2023-07-29T03:08:49;26.48;;;22.90;;
23474;SDS011;11910;52.086;21.066;2023-07-29T03:11:15;28.80;;;24.25;;
23474;SDS011;11910;52.086;21.066;2023-07-29T03:13:41;35.90;;;27.10;;
23474;SDS011;11910;52.086;21.066;2023-07-29T03:16:08;37.50;;;27.38;;
23474;SDS011;11910;52.086;21.066;2023-07-29T03:18:38;33.47;;;25.77;;
23474;SDS011;11910;52.086;21.066;2023-07-29T03:21:04;34.53;;;26.58;;
23474;SDS011;11910;52.086;21.066;2023-07-29T03:23:30;35.85;;;26.95;;
23474;SDS011;11910;52.086;21.066;2023-07-29T03:25:57;30.52;;;26.38;;
23474;SDS011;11910;52.086;21.066;2023-07-29T03:28:26;33.58;;;26.48;;
23474;SDS011;11910;52.086;21.066;2023-07-29T03:30:53;36.00;;;27.55;;
23474;SDS011;11910;52.086;21.066;2023-07-29T03:33:22;36.83;;;28.58;;
23474;SDS011;11910;52.086;21.066;2023-07-29T03:35:49;33.63;;;26.15;;
23474;SDS011;11910;52.086;21.066;2023-07-29T03:38:15;56.33;;;29.08;;
23474;SDS011;11910;52.086;21.066;2023-07-29T03:40:41;59.00;;;28.40;;
23474;SDS011;11910;52.086;21.066;2023-07-29T03:43:07;63.22;;;28.60;;
23474;SDS011;11910;52.086;21.066;2023-07-29T03:45:33;40.10;;;24.80;;
23474;SDS011;11910;52.086;21.066;2023-07-29T03:47:59;47.30;;;27.73;;
23474;SDS011;11910;52.086;21.066;2023-07-29T03:50:25;43.53;;;27.05;;
23474;SDS011;11910;52.086;21.066;2023-07-29T03:52:51;68.47;;;27.73;;
23474;SDS011;11910;52.086;21.066;2023-07-29T03:55:17;93.93;;;30.63;;
23474;SDS011;11910;52.086;21.066;2023-07-29T03:57:43;57.95;;;27.92;;
23474;SDS011;11910;52.086;21.066;2023-07-29T04:00:09;42.08;;;28.23;;
23474;SDS011;11910;52.086;21.066;2023-07-29T04:02:35;39.20;;;28.15;;
23474;SDS011;11910;52.086;21.066;2023-07-29T04:05:04;36.95;;;26.98;;
23474;SDS011;11910;52.086;21.066;2023-07-29T04:07:31;68.82;;;29.17;;
23474;SDS011;11910;52.086;21.066;2023-07-29T04:09:57;40.10;;;25.63;;
23474;SDS011;11910;52.086;21.066;2023-07-29T04:12:23;52.50;;;26.70;;
23474;SDS011;11910;52.086;21.066;2023-07-29T04:14:49;46.95;;;28.88;;
23474;SDS011;11910;52.086;21.066;2023-07-29T04:17:15;65.00;;;27.20;;
23474;SDS011;11910;52.086;21.066;2023-07-29T04:19:41;55.25;;;30.15;;
23474;SDS011;11910;52.086;21.066;2023-07-29T04:22:06;38.47;;;28.13;;
23474;SDS011;11910;52.086;21.066;2023-07-29T04:24:33;29.02;;;25.25;;
23474;SDS011;11910;52.086;21.066;2023-07-29T04:26:58;35.38;;;26.88;;
23474;SDS011;11910;52.086;21.066;2023-07-29T04:29:24;32.53;;;26.05;;
23474;SDS011;11910;52.086;21.066;2023-07-29T04:31:50;27.58;;;24.50;;
23474;SDS011;11910;52.086;21.066;2023-07-29T04:34:16;32.17;;;26.45;;
23474;SDS011;11910;52.086;21.066;2023-07-29T04:36:45;28.25;;;23.90;;
23474;SDS011;11910;52.086;21.066;2023-07-29T04:39:11;30.60;;;25.08;;
23474;SDS011;11910;52.086;21.066;2023-07-29T04:41:37;29.30;;;23.90;;
23474;SDS011;11910;52.086;21.066;2023-07-29T04:44:03;28.20;;;23.45;;
23474;SDS011;11910;52.086;21.066;2023-07-29T04:46:29;29.17;;;24.40;;
23474;SDS011;11910;52.086;21.066;2023-07-29T04:48:54;27.80;;;24.33;;
23474;SDS011;11910;52.086;21.066;2023-07-29T04:51:20;31.27;;;25.20;;
23474;SDS011;11910;52.086;21.066;2023-07-29T04:53:46;25.75;;;22.23;;
23474;SDS011;11910;52.086;21.066;2023-07-29T04:56:11;26.30;;;22.58;;
23474;SDS011;11910;52.086;21.066;2023-07-29T04:58:42;24.40;;;21.70;;
23474;SDS011;11910;52.086;21.066;2023-07-29T05:01:08;24.40;;;20.77;;
23474;SDS011;11910;52.086;21.066;2023-07-29T05:03:34;24.45;;;21.90;;
23474;SDS011;11910;52.086;21.066;2023-07-29T05:06:01;23.52;;;21.00;;
23474;SDS011;11910;52.086;21.066;2023-07-29T05:08:27;25.73;;;22.60;;
23474;SDS011;11910;52.086;21.066;2023-07-29T05:10:53;23.55;;;21.05;;
23474;SDS011;11910;52.086;21.066;2023-07-29T05:13:19;23.00;;;20.58;;
23474;SDS011;11910;52.086;21.066;2023-07-29T05:15:45;22.65;;;20.38;;
23474;SDS011;11910;52.086;21.066;2023-07-29T05:18:11;23.48;;;21.05;;
23474;SDS011;11910;52.086;21.066;2023-07-29T05:20:37;23.35;;;20.85;;
23474;SDS011;11910;52.086;21.066;2023-07-29T05:23:02;23.58;;;21.13;;
23474;SDS011;11910;52.086;21.066;2023-07-29T05:25:28;23.13;;;19.95;;
23474;SDS011;11910;52.086;21.066;2023-07-29T05:27:54;22.50;;;20.20;;
23474;SDS011;11910;52.086;21.066;2023-07-29T05:30:19;21.67;;;19.48;;
23474;SDS011;11910;52.086;21.066;2023-07-29T05:32:45;21.65;;;19.45;;
23474;SDS011;11910;52.086;21.066;2023-07-29T05:35:11;21.83;;;19.55;;
23474;SDS011;11910;52.086;21.066;2023-07-29T05:37:39;22.98;;;20.50;;
23474;SDS011;11910;52.086;21.066;2023-07-29T05:40:05;21.13;;;18.90;;
23474;SDS011;11910;52.086;21.066;2023-07-29T05:42:32;19.17;;;17.30;;
23474;SDS011;11910;52.086;21.066;2023-07-29T05:44:58;21.95;;;19.60;;
23474;SDS011;11910;52.086;21.066;2023-07-29T05:47:24;20.45;;;18.42;;
23474;SDS011;11910;52.086;21.066;2023-07-29T05:49:49;19.92;;;18.02;;
23474;SDS011;11910;52.086;21.066;2023-07-29T05:52:15;19.70;;;17.80;;
23474;SDS011;11910;52.086;21.066;2023-07-29T05:54:41;20.67;;;18.52;;
23474;SDS011;11910;52.086;21.066;2023-07-29T05:57:08;21.60;;;19.50;;
23474;SDS011;11910;52.086;21.066;2023-07-29T05:59:35;20.65;;;18.73;;
23474;SDS011;11910;52.086;21.066;2023-07-29T06:02:00;17.75;;;15.85;;
23474;SDS011;11910;52.086;21.066;2023-07-29T06:04:26;16.77;;;15.05;;
23474;SDS011;11910;52.086;21.066;2023-07-29T06:06:52;18.88;;;17.02;;
23474;SDS011;11910;52.086;21.066;2023-07-29T06:09:18;19.10;;;17.20;;
23474;SDS011;11910;52.086;21.066;2023-07-29T06:11:43;18.10;;;16.30;;
23474;SDS011;11910;52.086;21.066;2023-07-29T06:14:09;19.58;;;17.60;;
23474;SDS011;11910;52.086;21.066;2023-07-29T06:16:34;19.35;;;16.98;;
23474;SDS011;11910;52.086;21.066;2023-07-29T06:19:00;19.33;;;17.42;;
23474;SDS011;11910;52.086;21.066;2023-07-29T06:21:25;17.15;;;15.55;;
23474;SDS011;11910;52.086;21.066;2023-07-29T06:23:51;18.42;;;16.73;;
23474;SDS011;11910;52.086;21.066;2023-07-29T06:26:17;17.88;;;15.98;;
23474;SDS011;11910;52.086;21.066;2023-07-29T06:28:42;19.02;;;17.08;;
23474;SDS011;11910;52.086;21.066;2023-07-29T06:31:08;20.00;;;18.00;;
23474;SDS011;11910;52.086;21.066;2023-07-29T06:33:34;18.20;;;16.52;;
23474;SDS011;11910;52.086;21.066;2023-07-29T06:36:02;19.60;;;17.70;;
23474;SDS011;11910;52.086;21.066;2023-07-29T06:38:28;19.15;;;17.15;;
23474;SDS011;11910;52.086;21.066;2023-07-29T06:40:53;17.85;;;16.02;;
23474;SDS011;11910;52.086;21.066;2023-07-29T06:43:19;17.35;;;15.52;;
23474;SDS011;11910;52.086;21.066;2023-07-29T06:45:45;18.27;;;16.58;;
23474;SDS011;11910;52.086;21.066;2023-07-29T06:48:10;16.90;;;15.43;;
23474;SDS011;11910;52.086;21.066;2023-07-29T06:50:36;16.35;;;14.77;;
23474;SDS011;11910;52.086;21.066;2023-07-29T06:53:01;17.38;;;15.65;;
23474;SDS011;11910;52.086;21.066;2023-07-29T06:55:27;16.45;;;14.85;;
23474;SDS011;11910;52.086;21.066;2023-07-29T06:57:53;17.33;;;15.70;;
23474;SDS011;11910;52.086;21.066;2023-07-29T07:00:19;17.75;;;16.05;;
23474;SDS011;11910;52.086;21.066;2023-07-29T07:02:44;17.08;;;15.48;;
23474;SDS011;11910;52.086;21.066;2023-07-29T07:05:10;17.70;;;15.88;;
23474;SDS011;11910;52.086;21.066;2023-07-29T07:07:35;18.67;;;16.70;;
23474;SDS011;11910;52.086;21.066;2023-07-29T07:10:01;16.30;;;14.90;;
23474;SDS011;11910;52.086;21.066;2023-07-29T07:12:27;14.93;;;13.07;;
23474;SDS011;11910;52.086;21.066;2023-07-29T07:14:52;13.85;;;12.45;;
23474;SDS011;11910;52.086;21.066;2023-07-29T07:17:18;13.63;;;12.43;;
23474;SDS011;11910;52.086;21.066;2023-07-29T07:19:43;13.13;;;11.93;;
23474;SDS011;11910;52.086;21.066;2023-07-29T07:22:09;13.82;;;12.52;;
23474;SDS011;11910;52.086;21.066;2023-07-29T07:24:38;12.82;;;11.52;;
23474;SDS011;11910;52.086;21.066;2023-07-29T07:27:03;12.98;;;11.75;;
23474;SDS011;11910;52.086;21.066;2023-07-29T07:29:29;11.80;;;10.70;;
23474;SDS011;11910;52.086;21.066;2023-07-29T07:31:55;10.43;;;9.45;;
23474;SDS011;11910;52.086;21.066;2023-07-29T07:34:21;11.75;;;10.30;;
23474;SDS011;11910;52.086;21.066;2023-07-29T07:36:48;9.10;;;8.23;;
23474;SDS011;11910;52.086;21.066;2023-07-29T07:39:20;10.65;;;9.70;;
23474;SDS011;11910;52.086;21.066;2023-07-29T07:41:46;11.25;;;10.20;;
23474;SDS011;11910;52.086;21.066;2023-07-29T07:44:11;11.02;;;10.02;;
23474;SDS011;11910;52.086;21.066;2023-07-29T07:46:40;9.85;;;8.95;;
23474;SDS011;11910;52.086;21.066;2023-07-29T07:49:06;10.38;;;9.48;;
23474;SDS011;11910;52.086;21.066;2023-07-29T07:51:37;9.57;;;8.40;;
23474;SDS011;11910;52.086;21.066;2023-07-29T07:54:03;9.52;;;8.63;;
23474;SDS011;11910;52.086;21.066;2023-07-29T07:56:29;11.40;;;9.65;;
23474;SDS011;11910;52.086;21.066;2023-07-29T07:58:54;8.98;;;7.97;;
23474;SDS011;11910;52.086;21.066;2023-07-29T08:01:20;8.57;;;7.68;;
23474;SDS011;11910;52.086;21.066;2023-07-29T08:03:47;11.57;;;10.48;;
23474;SDS011;11910;52.086;21.066;2023-07-29T08:06:13;7.15;;;6.55;;
23474;SDS011;11910;52.086;21.066;2023-07-29T08:08:39;8.05;;;7.35;;
23474;SDS011;11910;52.086;21.066;2023-07-29T08:11:10;8.98;;;8.07;;
23474;SDS011;11910;52.086;21.066;2023-07-29T08:13:42;21.27;;;12.88;;
23474;SDS011;11910;52.086;21.066;2023-07-29T08:16:14;6.53;;;5.93;;
23474;SDS011;11910;52.086;21.066;2023-07-29T08:18:43;6.38;;;5.78;;
23474;SDS011;11910;52.086;21.066;2023-07-29T08:24:02;5.72;;;5.13;;
23474;SDS011;11910;52.086;21.066;2023-07-29T08:26:37;10.20;;;7.03;;
23474;SDS011;11910;52.086;21.066;2023-07-29T08:29:03;19.65;;;9.30;;
23474;SDS011;11910;52.086;21.066;2023-07-29T08:31:35;9.63;;;4.78;;
23474;SDS011;11910;52.086;21.066;2023-07-29T08:34:06;4.63;;;4.28;;
23474;SDS011;11910;52.086;21.066;2023-07-29T08:36:32;5.57;;;3.78;;
23474;SDS011;11910;52.086;21.066;2023-07-29T08:38:58;4.53;;;4.05;;
23474;SDS011;11910;52.086;21.066;2023-07-29T08:41:31;4.13;;;3.83;;
23474;SDS011;11910;52.086;21.066;2023-07-29T08:44:12;4.32;;;3.92;;
23474;SDS011;11910;52.086;21.066;2023-07-29T08:46:57;4.43;;;3.58;;
23474;SDS011;11910;52.086;21.066;2023-07-29T08:49:36;3.85;;;3.50;;
23474;SDS011;11910;52.086;21.066;2023-07-29T08:52:35;4.18;;;3.55;;
23474;SDS011;11910;52.086;21.066;2023-07-29T08:55:12;5.03;;;3.17;;
23474;SDS011;11910;52.086;21.066;2023-07-29T08:57:38;7.40;;;4.60;;
23474;SDS011;11910;52.086;21.066;2023-07-29T09:00:10;32.38;;;11.95;;
23474;SDS011;11910;52.086;21.066;2023-07-29T09:02:37;6.03;;;4.25;;
23474;SDS011;11910;52.086;21.066;2023-07-29T09:05:03;18.70;;;9.05;;
23474;SDS011;11910;52.086;21.066;2023-07-29T09:07:30;4.82;;;4.15;;
23474;SDS011;11910;52.086;21.066;2023-07-29T09:09:57;4.78;;;3.80;;
23474;SDS011;11910;52.086;21.066;2023-07-29T09:12:22;4.35;;;3.63;;
23474;SDS011;11910;52.086;21.066;2023-07-29T09:14:51;6.65;;;4.40;;
23474;SDS011;11910;52.086;21.066;2023-07-29T09:17:18;4.85;;;3.65;;
23474;SDS011;11910;52.086;21.066;2023-07-29T09:19:47;5.70;;;3.85;;
23474;SDS011;11910;52.086;21.066;2023-07-29T09:22:17;5.10;;;3.67;;
23474;SDS011;11910;52.086;21.066;2023-07-29T09:24:50;7.72;;;5.03;;
23474;SDS011;11910;52.086;21.066;2023-07-29T09:27:26;5.40;;;4.10;;
23474;SDS011;11910;52.086;21.066;2023-07-29T09:30:03;10.23;;;6.03;;
23474;SDS011;11910;52.086;21.066;2023-07-29T09:32:30;3.92;;;3.58;;
23474;SDS011;11910;52.086;21.066;2023-07-29T09:34:55;8.25;;;4.65;;
23474;SDS011;11910;52.086;21.066;2023-07-29T09:37:21;5.07;;;3.20;;
23474;SDS011;11910;52.086;21.066;2023-07-29T09:39:48;3.80;;;3.05;;
23474;SDS011;11910;52.086;21.066;2023-07-29T09:42:18;4.63;;;3.80;;
23474;SDS011;11910;52.086;21.066;2023-07-29T09:44:45;3.47;;;3.17;;
23474;SDS011;11910;52.086;21.066;2023-07-29T09:47:18;4.32;;;3.15;;
23474;SDS011;11910;52.086;21.066;2023-07-29T09:49:46;3.30;;;3.00;;
23474;SDS011;11910;52.086;21.066;2023-07-29T09:52:12;3.15;;;2.70;;
23474;SDS011;11910;52.086;21.066;2023-07-29T10:00:00;3.10;;;2.75;;
23474;SDS011;11910;52.086;21.066;2023-07-29T10:02:43;3.13;;;2.83;;
23474;SDS011;11910;52.086;21.066;2023-07-29T10:05:25;4.30;;;3.40;;
23474;SDS011;11910;52.086;21.066;2023-07-29T10:07:57;17.25;;;8.02;;
23474;SDS011;11910;52.086;21.066;2023-07-29T10:10:29;2.85;;;2.63;;
23474;SDS011;11910;52.086;21.066;2023-07-29T10:12:55;3.78;;;2.75;;
23474;SDS011;11910;52.086;21.066;2023-07-29T10:15:21;5.07;;;3.80;;
23474;SDS011;11910;52.086;21.066;2023-07-29T10:17:48;11.18;;;5.00;;
23474;SDS011;11910;52.086;21.066;2023-07-29T10:20:16;3.38;;;3.00;;
23474;SDS011;11910;52.086;21.066;2023-07-29T10:22:42;11.93;;;6.85;;
23474;SDS011;11910;52.086;21.066;2023-07-29T10:27:55;5.85;;;3.95;;
23474;SDS011;11910;52.086;21.066;2023-07-29T10:30:25;4.20;;;2.90;;
23474;SDS011;11910;52.086;21.066;2023-07-29T10:32:53;3.20;;;2.90;;
23474;SDS011;11910;52.086;21.066;2023-07-29T10:35:21;2.80;;;2.60;;
23474;SDS011;11910;52.086;21.066;2023-07-29T10:37:50;3.25;;;2.70;;
23474;SDS011;11910;52.086;21.066;2023-07-29T10:40:17;5.20;;;3.08;;
23474;SDS011;11910;52.086;21.066;2023-07-29T10:43:01;2.60;;;2.40;;
23474;SDS011;11910;52.086;21.066;2023-07-29T10:45:38;4.90;;;3.83;;
23474;SDS011;11910;52.086;21.066;2023-07-29T10:48:11;2.80;;;2.60;;
23474;SDS011;11910;52.086;21.066;2023-07-29T10:50:37;3.40;;;2.90;;
23474;SDS011;11910;52.086;21.066;2023-07-29T10:53:04;5.88;;;3.83;;
23474;SDS011;11910;52.086;21.066;2023-07-29T10:55:32;4.25;;;2.85;;
23474;SDS011;11910;52.086;21.066;2023-07-29T10:58:14;5.00;;;4.13;;
23474;SDS011;11910;52.086;21.066;2023-07-29T11:00:49;3.13;;;2.90;;
23474;SDS011;11910;52.086;21.066;2023-07-29T11:03:15;4.25;;;3.20;;
23474;SDS011;11910;52.086;21.066;2023-07-29T11:05:44;3.40;;;2.90;;
23474;SDS011;11910;52.086;21.066;2023-07-29T11:13:23;7.60;;;4.75;;
23474;SDS011;11910;52.086;21.066;2023-07-29T11:15:52;14.82;;;6.30;;
23474;SDS011;11910;52.086;21.066;2023-07-29T11:18:19;3.38;;;2.70;;
23474;SDS011;11910;52.086;21.066;2023-07-29T11:20:46;12.25;;;7.88;;
23474;SDS011;11910;52.086;21.066;2023-07-29T11:23:13;4.82;;;3.60;;
23474;SDS011;11910;52.086;21.066;2023-07-29T11:25:38;5.50;;;4.50;;
23474;SDS011;11910;52.086;21.066;2023-07-29T11:28:04;6.57;;;4.10;;
23474;SDS011;11910;52.086;21.066;2023-07-29T11:30:30;3.20;;;2.90;;
23474;SDS011;11910;52.086;21.066;2023-07-29T11:32:56;3.47;;;2.90;;
23474;SDS011;11910;52.086;21.066;2023-07-29T11:35:23;3.25;;;2.95;;
23474;SDS011;11910;52.086;21.066;2023-07-29T11:37:50;3.33;;;3.05;;
23474;SDS011;11910;52.086;21.066;2023-07-29T11:40:17;3.40;;;3.10;;
23474;SDS011;11910;52.086;21.066;2023-07-29T11:42:45;5.45;;;3.20;;
23474;SDS011;11910;52.086;21.066;2023-07-29T11:45:12;13.48;;;7.35;;
23474;SDS011;11910;52.086;21.066;2023-07-29T11:47:38;7.47;;;5.53;;
23474;SDS011;11910;52.086;21.066;2023-07-29T11:50:04;58.78;;;24.02;;
23474;SDS011;11910;52.086;21.066;2023-07-29T11:52:41;9.88;;;5.30;;
23474;SDS011;11910;52.086;21.066;2023-07-29T11:55:11;3.33;;;3.03;;
23474;SDS011;11910;52.086;21.066;2023-07-29T11:57:40;3.00;;;2.80;;
23474;SDS011;11910;52.086;21.066;2023-07-29T12:00:08;12.40;;;5.72;;
23474;SDS011;11910;52.086;21.066;2023-07-29T12:02:39;9.73;;;4.82;;
23474;SDS011;11910;52.086;21.066;2023-07-29T12:05:07;4.50;;;3.72;;
23474;SDS011;11910;52.086;21.066;2023-07-29T12:07:34;5.88;;;3.72;;
23474;SDS011;11910;52.086;21.066;2023-07-29T12:10:00;4.07;;;3.53;;
23474;SDS011;11910;52.086;21.066;2023-07-29T12:12:28;58.35;;;22.65;;
23474;SDS011;11910;52.086;21.066;2023-07-29T12:14:54;8.65;;;5.53;;
23474;SDS011;11910;52.086;21.066;2023-07-29T12:17:20;3.92;;;3.10;;
23474;SDS011;11910;52.086;21.066;2023-07-29T12:19:46;4.70;;;3.92;;
23474;SDS011;11910;52.086;21.066;2023-07-29T12:22:11;4.45;;;2.72;;
23474;SDS011;11910;52.086;21.066;2023-07-29T12:24:38;3.47;;;2.92;;
23474;SDS011;11910;52.086;21.066;2023-07-29T12:27:05;6.43;;;3.65;;
23474;SDS011;11910;52.086;21.066;2023-07-29T12:29:39;5.55;;;3.40;;
23474;SDS011;11910;52.086;21.066;2023-07-29T12:32:06;3.30;;;2.95;;
23474;SDS011;11910;52.086;21.066;2023-07-29T12:34:32;2.90;;;2.35;;
23474;SDS011;11910;52.086;21.066;2023-07-29T12:36:58;2.70;;;2.50;;
23474;SDS011;11910;52.086;21.066;2023-07-29T12:39:28;3.58;;;2.67;;
23474;SDS011;11910;52.086;21.066;2023-07-29T12:41:55;3.83;;;2.90;;
23474;SDS011;11910;52.086;21.066;2023-07-29T12:44:25;6.82;;;4.28;;
23474;SDS011;11910;52.086;21.066;2023-07-29T12:46:55;3.72;;;3.35;;
23474;SDS011;11910;52.086;21.066;2023-07-29T12:49:21;6.25;;;2.63;;
23474;SDS011;11910;52.086;21.066;2023-07-29T12:51:47;2.92;;;2.70;;
23474;SDS011;11910;52.086;21.066;2023-07-29T12:54:13;3.60;;;2.60;;
23474;SDS011;11910;52.086;21.066;2023-07-29T12:56:38;4.90;;;3.22;;
23474;SDS011;11910;52.086;21.066;2023-07-29T12:59:04;4.13;;;2.80;;
23474;SDS011;11910;52.086;21.066;2023-07-29T13:01:30;3.90;;;2.40;;
23474;SDS011;11910;52.086;21.066;2023-07-29T13:03:56;3.75;;;2.30;;
23474;SDS011;11910;52.086;21.066;2023-07-29T13:06:21;3.47;;;2.88;;
23474;SDS011;11910;52.086;21.066;2023-07-29T13:08:47;2.40;;;2.10;;
23474;SDS011;11910;52.086;21.066;2023-07-29T13:11:14;5.15;;;2.20;;
23474;SDS011;11910;52.086;21.066;2023-07-29T13:13:40;3.75;;;2.22;;
23474;SDS011;11910;52.086;21.066;2023-07-29T13:16:06;3.30;;;2.20;;
23474;SDS011;11910;52.086;21.066;2023-07-29T13:18:32;3.00;;;2.40;;
23474;SDS011;11910;52.086;21.066;2023-07-29T13:20:58;2.75;;;2.35;;
23474;SDS011;11910;52.086;21.066;2023-07-29T13:23:25;2.80;;;2.50;;
23474;SDS011;11910;52.086;21.066;2023-07-29T13:25:51;4.82;;;2.70;;
23474;SDS011;11910;52.086;21.066;2023-07-29T13:28:16;2.30;;;2.10;;
23474;SDS011;11910;52.086;21.066;2023-07-29T13:30:42;4.57;;;2.88;;
23474;SDS011;11910;52.086;21.066;2023-07-29T13:33:08;3.70;;;2.20;;
23474;SDS011;11910;52.086;21.066;2023-07-29T13:35:34;2.63;;;2.05;;
23474;SDS011;11910;52.086;21.066;2023-07-29T13:38:00;3.33;;;2.22;;
23474;SDS011;11910;52.086;21.066;2023-07-29T13:40:26;2.35;;;2.15;;
23474;SDS011;11910;52.086;21.066;2023-07-29T13:42:52;2.83;;;2.33;;
23474;SDS011;11910;52.086;21.066;2023-07-29T13:45:18;3.75;;;3.17;;
23474;SDS011;11910;52.086;21.066;2023-07-29T13:47:44;2.42;;;2.22;;
23474;SDS011;11910;52.086;21.066;2023-07-29T13:50:13;4.97;;;2.65;;
23474;SDS011;11910;52.086;21.066;2023-07-29T13:52:38;8.57;;;3.88;;
23474;SDS011;11910;52.086;21.066;2023-07-29T13:55:04;5.10;;;2.28;;
23474;SDS011;11910;52.086;21.066;2023-07-29T13:57:39;4.53;;;2.30;;
23474;SDS011;11910;52.086;21.066;2023-07-29T14:00:06;2.63;;;2.40;;
23474;SDS011;11910;52.086;21.066;2023-07-29T14:02:33;3.20;;;2.05;;
23474;SDS011;11910;52.086;21.066;2023-07-29T14:04:58;3.92;;;2.05;;
23474;SDS011;11910;52.086;21.066;2023-07-29T14:07:24;2.30;;;2.10;;
23474;SDS011;11910;52.086;21.066;2023-07-29T14:09:50;4.95;;;3.05;;
23474;SDS011;11910;52.086;21.066;2023-07-29T14:12:15;6.97;;;2.15;;
23474;SDS011;11910;52.086;21.066;2023-07-29T14:14:41;4.70;;;2.70;;
23474;SDS011;11910;52.086;21.066;2023-07-29T14:17:07;5.05;;;2.80;;
23474;SDS011;11910;52.086;21.066;2023-07-29T14:19:36;2.58;;;2.00;;
23474;SDS011;11910;52.086;21.066;2023-07-29T14:22:02;3.33;;;2.20;;
23474;SDS011;11910;52.086;21.066;2023-07-29T14:24:28;4.32;;;2.03;;
23474;SDS011;11910;52.086;21.066;2023-07-29T14:26:54;2.88;;;2.00;;
23474;SDS011;11910;52.086;21.066;2023-07-29T14:29:19;5.55;;;2.20;;
23474;SDS011;11910;52.086;21.066;2023-07-29T14:31:45;2.42;;;2.22;;
23474;SDS011;11910;52.086;21.066;2023-07-29T14:34:10;3.78;;;2.78;;
23474;SDS011;11910;52.086;21.066;2023-07-29T14:36:36;2.20;;;2.00;;
23474;SDS011;11910;52.086;21.066;2023-07-29T14:39:02;3.53;;;2.70;;
23474;SDS011;11910;52.086;21.066;2023-07-29T14:41:28;2.67;;;2.38;;
23474;SDS011;11910;52.086;21.066;2023-07-29T14:43:55;4.97;;;2.08;;